createdAt,value
2022-09-10T00:09:45.359Z,33.00
2022-09-10T00:19:51.235Z,30.60
2022-09-10T00:29:57.348Z,27.00
2022-09-10T00:40:03.571Z,34.00
2022-09-10T00:50:18.629Z,34.70
2022-09-10T01:00:24.660Z,34.20
2022-09-10T01:10:34.534Z,38.50
2022-09-10T01:20:56.162Z,31.80
2022-09-10T01:31:11.410Z,34.70
2022-09-10T01:41:17.199Z,32.60
2022-09-10T01:51:36.983Z,39.50
2022-09-10T02:01:48.979Z,36.40
2022-09-10T02:11:56.328Z,33.40
2022-09-10T02:22:02.007Z,37.00
2022-09-10T02:32:08.272Z,36.80
2022-09-10T02:42:17.617Z,36.50
2022-09-10T02:52:23.261Z,42.30
2022-09-10T03:02:28.978Z,48.00
2022-09-10T03:12:34.629Z,46.60
2022-09-10T03:22:40.281Z,48.30
2022-09-10T03:32:45.900Z,50.30
2022-09-10T03:42:51.529Z,57.10
2022-09-10T03:52:57.125Z,57.80
2022-09-10T04:03:02.835Z,50.60
2022-09-10T04:13:09.284Z,59.60
2022-09-10T04:23:14.917Z,54.50
2022-09-10T04:33:20.657Z,52.30
2022-09-10T04:43:26.613Z,48.80
2022-09-10T04:53:32.463Z,46.30
2022-09-10T05:03:38.180Z,45.60
2022-09-10T05:13:43.993Z,50.10
2022-09-10T05:23:49.616Z,40.40
2022-09-10T05:33:55.877Z,32.30
2022-09-10T05:44:02.007Z,32.90
2022-09-10T05:54:08.203Z,33.00
2022-09-10T06:04:13.825Z,35.20
2022-09-10T06:14:20.399Z,32.30
2022-09-10T06:24:27.055Z,26.90
2022-09-10T06:34:32.675Z,31.10
2022-09-10T06:44:39.553Z,30.50
2022-09-10T06:54:45.504Z,27.20
2022-09-10T07:04:51.174Z,18.00
2022-09-10T07:14:56.780Z,16.40
2022-09-10T07:25:02.363Z,13.90
2022-09-10T07:35:09.393Z,9.80
2022-09-10T07:45:16.273Z,9.60
2022-09-10T07:55:23.364Z,9.20
2022-09-10T08:05:29.904Z,10.20
2022-09-10T08:15:36.131Z,9.80
2022-09-10T08:25:49.962Z,7.90
2022-09-10T08:36:00.406Z,5.60
2022-09-10T08:46:15.191Z,5.10
2022-09-10T08:56:23.384Z,5.30
2022-09-10T09:06:35.701Z,3.70
2022-09-10T09:16:57.263Z,3.70
2022-09-10T09:27:10.173Z,4.00
2022-09-10T09:37:22.408Z,5.10
2022-09-10T09:47:28.135Z,6.00
2022-09-10T09:57:33.904Z,5.70
2022-09-10T10:07:40.121Z,4.30
2022-09-10T10:17:45.818Z,4.70
2022-09-10T10:27:54.025Z,4.20
2022-09-10T10:38:17.427Z,5.00
2022-09-10T10:48:31.905Z,5.50
2022-09-10T10:59:00.801Z,5.60
2022-09-10T11:09:14.031Z,5.90
2022-09-10T11:19:28.548Z,9.10
2022-09-10T11:29:41.623Z,7.50
2022-09-10T11:39:52.506Z,7.70
2022-09-10T11:50:02.833Z,7.90
2022-09-10T12:00:16.239Z,7.90
2022-09-10T12:10:31.794Z,8.40
2022-09-10T12:20:43.119Z,8.30
2022-09-10T12:31:01.264Z,7.40
2022-09-10T12:41:12.314Z,7.60
2022-09-10T12:51:32.032Z,7.40
2022-09-10T13:01:46.412Z,8.00
2022-09-10T13:11:55.625Z,6.40
2022-09-10T13:22:01.465Z,8.20
2022-09-10T13:32:15.059Z,6.90
2022-09-10T13:42:35.734Z,7.40
2022-09-10T13:52:45.278Z,6.20
2022-09-10T14:02:52.826Z,7.10
2022-09-10T14:13:00.276Z,6.90
2022-09-10T14:23:08.116Z,9.00
2022-09-10T14:33:30.866Z,8.70
2022-09-10T14:43:39.007Z,9.10
2022-09-10T14:53:45.878Z,8.70
2022-09-10T15:03:51.553Z,9.10
2022-09-10T15:13:59.403Z,9.30
2022-09-10T15:24:05.927Z,10.70
2022-09-10T15:34:12.619Z,12.10
2022-09-10T15:44:18.382Z,16.20
2022-09-10T15:54:24.167Z,17.00
2022-09-10T16:04:33.860Z,18.00
2022-09-10T16:14:44.538Z,18.70
2022-09-10T16:24:50.248Z,20.00
2022-09-10T16:34:56.169Z,22.10
2022-09-10T16:45:01.752Z,19.70
2022-09-10T16:55:08.793Z,22.80
2022-09-10T17:05:14.454Z,17.80
2022-09-10T17:15:20.382Z,22.00
2022-09-10T17:25:26.003Z,17.90
2022-09-10T17:35:32.459Z,19.00
2022-09-10T17:45:40.734Z,20.50
2022-09-10T18:05:50.461Z,19.80
2022-09-10T18:15:56.131Z,17.60
2022-09-10T18:26:02.252Z,17.50
2022-09-10T18:36:15.457Z,20.10
2022-09-10T18:46:23.761Z,20.00
2022-09-10T19:06:38.055Z,16.40
2022-09-10T19:16:43.788Z,19.00
2022-09-10T19:26:49.466Z,19.20
2022-09-10T19:36:55.286Z,18.60
2022-09-10T19:47:01.044Z,19.30
2022-09-10T19:57:06.965Z,18.20
2022-09-10T20:07:12.877Z,19.70
2022-09-10T20:17:18.570Z,20.10
2022-09-10T20:27:24.943Z,21.80
2022-09-10T20:37:30.611Z,23.90
2022-09-10T20:47:42.970Z,31.80
2022-09-10T20:57:48.980Z,30.50
2022-09-10T21:07:54.765Z,25.20
2022-09-10T21:18:00.436Z,36.70
2022-09-10T21:28:06.468Z,44.00
2022-09-10T21:38:12.706Z,41.00
2022-09-10T21:48:18.351Z,44.20
2022-09-10T21:58:24.457Z,40.00
2022-09-10T22:08:30.114Z,34.90
2022-09-10T22:18:36.269Z,31.70
2022-09-10T22:28:42.728Z,29.20
2022-09-10T22:38:51.656Z,28.60
2022-09-10T22:48:57.889Z,29.10
2022-09-10T22:59:04.029Z,30.80
2022-09-10T23:09:12.869Z,26.50
2022-09-10T23:19:20.152Z,27.60
2022-09-10T23:29:25.807Z,28.50
2022-09-10T23:39:31.629Z,23.30
2022-09-10T23:49:37.283Z,21.10
2022-09-10T23:59:42.914Z,21.70
